Time;durP1;ratioP1;P1;durP2;ratioP2;P2;SDS_P1;SDS_P2;PMS_P1;PMS_P2;Temp;Humidity;BMP_temperature;BMP_pressure;BME280_temperature;BME280_humidity;BME280_pressure;Samples;Min_cycle;Max_cycle;Signal;HPM_P1;HPM_P2
2023/06/19 00:00:55;;;;;;;9.05;6.40;;;;;;;;;;4924706;29;20055;-94
2023/06/19 00:03:39;;;;;;;7.97;6.35;;;;;;;;;;4938118;29;20042;-93
2023/06/19 00:06:24;;;;;;;11.15;7.43;;;;;;;;;;4938442;29;20067;-93
2023/06/19 00:09:08;;;;;;;9.10;5.95;;;;;;;;;;4939090;29;20572;-90
2023/06/19 00:11:53;;;;;;;10.07;6.10;;;;;;;;;;4938915;29;20046;-92
2023/06/19 00:14:37;;;;;;;7.93;6.45;;;;;;;;;;4938892;29;20516;-91
2023/06/19 00:17:25;;;;;;;8.38;5.90;;;;;;;;;;4924962;29;20046;-92
2023/06/19 00:20:10;;;;;;;8.02;5.97;;;;;;;;;;4938908;29;20074;-92
2023/06/19 00:22:54;;;;;;;9.00;5.97;;;;;;;;;;4938572;29;20090;-92
2023/06/19 00:25:39;;;;;;;9.50;6.43;;;;;;;;;;4938755;29;20039;-91
2023/06/19 00:28:24;;;;;;;9.07;6.22;;;;;;;;;;4938757;29;20058;-92
2023/06/19 00:31:08;;;;;;;8.45;5.90;;;;;;;;;;4938866;29;20062;-92
2023/06/19 00:33:53;;;;;;;9.68;5.82;;;;;;;;;;4938385;29;20051;-92
2023/06/19 00:36:40;;;;;;;7.85;5.95;;;;;;;;;;4938692;29;20042;-92
2023/06/19 00:39:25;;;;;;;11.52;6.18;;;;;;;;;;4938659;29;20042;-93
2023/06/19 00:42:09;;;;;;;9.10;5.57;;;;;;;;;;4938505;29;20561;-92
2023/06/19 00:44:54;;;;;;;8.27;6.00;;;;;;;;;;4937622;29;20094;-93
2023/06/19 00:47:39;;;;;;;9.90;6.25;;;;;;;;;;4937326;29;20111;-92
2023/06/19 00:50:24;;;;;;;8.70;6.60;;;;;;;;;;4924394;29;20464;-92
2023/06/19 00:53:08;;;;;;;7.68;5.63;;;;;;;;;;4938396;29;20050;-90
2023/06/19 00:55:54;;;;;;;7.43;5.55;;;;;;;;;;4939276;29;20098;-92
2023/06/19 00:58:39;;;;;;;8.52;6.60;;;;;;;;;;4946881;29;20066;-91
2023/06/19 01:01:23;;;;;;;9.52;5.55;;;;;;;;;;4949008;29;20178;-92
2023/06/19 01:04:08;;;;;;;11.30;6.20;;;;;;;;;;4948287;29;20296;-90
2023/06/19 01:07:19;;;;;;;10.45;5.82;;;;;;;;;;4950769;29;20047;-91
2023/06/19 01:10:09;;;;;;;12.93;6.20;;;21.10;95.70;;;;;;4950483;29;20050;-91
2023/06/19 01:13:00;;;;;;;10.02;5.88;;;21.20;95.60;;;;;;4926381;29;20039;-91
2023/06/19 01:15:45;;;;;;;8.23;5.72;;;;;;;;;;4938136;29;20034;-90
2023/06/19 01:18:31;;;;;;;7.35;5.75;;;;;;;;;;4937969;29;20487;-92
2023/06/19 01:21:16;;;;;;;8.25;5.70;;;;;;;;;;4938009;29;20050;-91
2023/06/19 01:24:01;;;;;;;7.80;5.20;;;;;;;;;;4937681;29;20047;-92
2023/06/19 01:26:46;;;;;;;7.63;5.95;;;;;;;;;;4923597;29;20118;-90
2023/06/19 01:29:30;;;;;;;7.80;5.50;;;;;;;;;;4937640;29;20051;-91
2023/06/19 01:32:21;;;;;;;8.25;6.13;;;;;;;;;;4937652;29;20047;-90
2023/06/19 01:35:09;;;;;;;7.68;5.68;;;;;;;;;;4937200;29;20689;-91
2023/06/19 01:37:54;;;;;;;10.00;5.80;;;;;;;;;;4937099;29;20042;-91
2023/06/19 01:40:40;;;;;;;6.97;5.70;;;;;;;;;;4937432;29;20035;-91
2023/06/19 01:43:25;;;;;;;9.35;6.00;;;;;;;;;;4937342;29;20515;-92
2023/06/19 01:46:10;;;;;;;7.10;5.82;;;;;;;;;;4936931;29;20062;-92
2023/06/19 01:48:54;;;;;;;7.75;6.13;;;;;;;;;;4903229;29;20071;-91
2023/06/19 01:51:39;;;;;;;9.30;6.07;;;;;;;;;;4917324;29;20489;-90
2023/06/19 01:54:24;;;;;;;9.68;6.05;;;;;;;;;;4918170;29;20047;-90
2023/06/19 01:57:08;;;;;;;9.23;5.65;;;;;;;;;;4917667;29;20050;-91
2023/06/19 01:59:53;;;;;;;10.15;5.93;;;;;;;;;;4916859;29;20090;-92
2023/06/19 02:02:37;;;;;;;9.02;5.82;;;;;;;;;;4903758;29;20038;-91
2023/06/19 02:05:22;;;;;;;7.82;5.80;;;;;;;;;;4918021;29;20416;-92
2023/06/19 02:08:06;;;;;;;13.88;6.72;;;;;;;;;;4917562;29;20151;-92
2023/06/19 02:10:51;;;;;;;10.38;5.85;;;;;;;;;;4916669;29;20043;-90
2023/06/19 02:13:36;;;;;;;10.98;5.82;;;;;;;;;;4917842;29;20091;-91
2023/06/19 02:16:20;;;;;;;8.77;6.07;;;;;;;;;;4917752;29;20051;-91
2023/06/19 02:19:05;;;;;;;7.97;5.47;;;;;;;;;;4917361;29;20455;-90
2023/06/19 02:21:49;;;;;;;8.05;6.47;;;;;;;;;;4917313;29;20042;-92
2023/06/19 02:24:34;;;;;;;11.23;6.25;;;;;;;;;;4917615;29;20496;-90
2023/06/19 02:27:18;;;;;;;8.85;5.85;;;;;;;;;;4903433;29;20051;-92
2023/06/19 02:30:03;;;;;;;8.15;5.90;;;;;;;;;;4916265;29;20118;-91
2023/06/19 02:32:49;;;;;;;8.13;6.15;;;;;;;;;;4903448;29;20083;-91
2023/06/19 02:35:33;;;;;;;10.25;5.78;;;;;;;;;;4917581;29;20090;-91
2023/06/19 02:38:21;;;;;;;8.32;5.40;;;;;;;;;;4917349;29;20458;-92
2023/06/19 02:41:05;;;;;;;7.15;5.40;;;;;;;;;;4903088;29;20043;-91
2023/06/19 02:43:50;;;;;;;8.63;5.50;;;;;;;;;;4917291;29;20047;-91
2023/06/19 02:46:34;;;;;;;8.95;5.88;;;;;;;;;;4917220;29;20047;-91
2023/06/19 02:49:19;;;;;;;8.45;5.93;;;;;;;;;;4935315;29;20122;-91
2023/06/19 02:52:04;;;;;;;7.18;5.20;;;;;;;;;;4935685;29;20103;-91
2023/06/19 02:54:49;;;;;;;9.43;7.10;;;;;;;;;;4936013;29;20051;-91
2023/06/19 02:57:34;;;;;;;9.35;5.50;;;;;;;;;;4935963;29;20051;-91
2023/06/19 03:00:18;;;;;;;8.65;5.88;;;;;;;;;;4935538;29;20090;-91
2023/06/19 03:03:03;;;;;;;7.88;5.68;;;;;;;;;;4934494;29;20062;-92
2023/06/19 03:05:48;;;;;;;7.07;5.32;;;;;;;;;;4935774;29;20090;-91
2023/06/19 03:08:36;;;;;;;7.53;5.90;;;;;;;;;;4935764;29;20138;-91
2023/06/19 03:11:20;;;;;;;7.68;5.93;;;;;;;;;;4935430;29;20100;-91
2023/06/19 03:14:07;;;;;;;8.68;5.75;;;;;;;;;;4935226;29;20416;-90
2023/06/19 03:16:51;;;;;;;7.45;5.45;;;;;;;;;;4934763;29;20043;-91
2023/06/19 03:19:36;;;;;;;8.70;6.15;;;;;;;;;;4921319;29;20042;-92
2023/06/19 03:22:23;;;;;;;7.63;5.93;;;;;;;;;;4937864;29;20042;-92
2023/06/19 03:25:08;;;;;;;8.43;5.45;;;;;;;;;;4934011;29;20106;-92
2023/06/19 03:27:53;;;;;;;9.65;6.25;;;;;;;;;;4935346;29;20043;-91
2023/06/19 03:30:38;;;;;;;9.02;6.53;;;;;;;;;;4921144;29;20067;-92
2023/06/19 03:33:22;;;;;;;10.45;6.10;;;;;;;;;;4933332;29;20233;-90
2023/06/19 03:36:07;;;;;;;8.02;6.05;;;;;;;;;;4920651;29;20134;-90
2023/06/19 03:38:53;;;;;;;10.18;5.97;;;;;;;;;;4934368;29;20049;-91
2023/06/19 03:41:38;;;;;;;6.97;5.18;;;;;;;;;;4935166;29;20131;-91
2023/06/19 03:44:22;;;;;;;7.90;5.25;;;;;;;;;;4933940;29;20115;-90
2023/06/19 03:47:07;;;;;;;7.38;5.53;;;;;;;;;;4906845;29;20127;-91
2023/06/19 03:49:52;;;;;;;9.30;5.30;;;;;;;;;;4934231;29;20058;-91
2023/06/19 03:52:37;;;;;;;8.13;5.75;;;;;;;;;;4907450;29;20046;-91
2023/06/19 03:55:21;;;;;;;7.82;4.40;;;;;;;;;;4934854;29;20692;-92
2023/06/19 03:58:06;;;;;;;6.53;5.07;;;;;;;;;;4933911;29;20507;-91
2023/06/19 04:00:51;;;;;;;9.68;4.93;;;;;;;;;;4934204;29;20042;-90
2023/06/19 04:03:36;;;;;;;6.22;4.70;;;;;;;;;;4935041;29;20102;-91
2023/06/19 04:06:20;;;;;;;6.30;4.22;;;;;;;;;;4933772;29;20153;-90
2023/06/19 04:09:05;;;;;;;7.80;4.28;;;;;;;;;;4906838;29;20050;-90
2023/06/19 04:11:50;;;;;;;5.93;4.55;;;;;;;;;;4907386;29;20408;-91
2023/06/19 04:14:34;;;;;;;6.45;4.45;;;;;;;;;;4934999;29;20043;-93
2023/06/19 04:17:19;;;;;;;5.50;4.22;;;;;;;;;;4933659;29;20039;-90
2023/06/19 04:20:10;;;;;;;7.38;3.92;;;;;;;;;;4934082;29;20099;-90
2023/06/19 04:22:55;;;;;;;7.95;3.85;;;;;;;;;;4922883;29;20472;-91
2023/06/19 04:25:40;;;;;;;5.50;3.42;;;;;;;;;;4935006;29;20058;-91
2023/06/19 04:28:24;;;;;;;4.60;3.55;;;;;;;;;;4920281;29;20667;-91
2023/06/19 04:31:09;;;;;;;5.78;3.35;;;;;;;;;;4933700;29;20046;-92
2023/06/19 04:33:54;;;;;;;7.43;3.60;;;;;;;;;;4935082;29;20042;-92
2023/06/19 04:36:39;;;;;;;6.15;3.03;;;;;;;;;;4935122;29;20090;-90
2023/06/19 04:39:24;;;;;;;6.13;3.53;;;;;;;;;;4906725;29;20118;-90
2023/06/19 04:42:08;;;;;;;8.63;3.83;;;;;;;;;;4920350;29;20047;-91
2023/06/19 04:44:53;;;;;;;5.35;3.47;;;;;;;;;;4936727;29;20042;-90
2023/06/19 04:47:38;;;;;;;6.45;3.78;;;;;;;;;;4938266;29;20058;-92
2023/06/19 04:50:24;;;;;;;4.88;3.35;;;;;;;;;;4938056;29;20173;-91
2023/06/19 04:53:08;;;;;;;5.00;3.13;;;;;;;;;;4938157;29;20101;-89
2023/06/19 04:55:54;;;;;;;10.10;4.53;;;;;;;;;;4938165;29;20070;-90
2023/06/19 04:58:45;;;;;;;5.30;3.65;;;;;;;;;;4938176;29;20047;-90
2023/06/19 05:01:30;;;;;;;6.50;3.45;;;;;;;;;;4936774;29;20095;-90
2023/06/19 05:04:14;;;;;;;5.10;3.40;;;;;;;;;;4937626;29;20055;-91
2023/06/19 05:06:59;;;;;;;4.82;3.22;;;;;;;;;;4938069;29;20038;-90
2023/06/19 05:09:44;;;;;;;4.70;3.53;;;;;;;;;;4923571;29;20062;-90
2023/06/19 05:12:28;;;;;;;6.32;3.53;;;;;;;;;;4936358;29;20090;-91
2023/06/19 05:15:13;;;;;;;6.55;3.40;;;;;;;;;;4937599;29;20034;-91
2023/06/19 05:17:58;;;;;;;11.13;3.80;;;;;;;;;;4923479;29;20046;-91
2023/06/19 05:20:44;;;;;;;6.30;3.70;;;21.20;99.30;;;;;;4923458;29;20053;-92
2023/06/19 05:23:28;;;;;;;4.60;3.35;;;;;;;;;;4937272;29;20046;-92
2023/06/19 05:26:13;;;;;;;7.38;4.55;;;;;;;;;;4937573;29;20038;-91
2023/06/19 05:28:58;;;;;;;5.07;3.45;;;;;;;;;;4936522;29;20091;-91
2023/06/19 05:31:42;;;;;;;5.18;3.55;;;;;;;;;;4937627;29;20095;-91
2023/06/19 05:34:27;;;;;;;6.00;3.20;;;;;;;;;;4937157;29;20038;-91
2023/06/19 05:37:11;;;;;;;4.45;3.15;;;;;;;;;;4936487;29;20038;-90
2023/06/19 05:39:57;;;;;;;5.60;3.55;;;;;;;;;;4937386;29;20046;-93
2023/06/19 05:42:41;;;;;;;5.53;4.10;;;;;;;;;;4937572;29;20090;-91
2023/06/19 05:45:25;;;;;;;6.47;4.15;;;;;;;;;;4936109;29;20090;-91
2023/06/19 05:48:10;;;;;;;7.38;4.00;;;;;;;;;;4936988;29;20111;-92
2023/06/19 05:50:54;;;;;;;5.57;3.90;;;;;;;;;;4936122;29;20050;-91
2023/06/19 05:53:40;;;;;;;7.88;4.47;;;;;;;;;;4936676;29;20039;-90
2023/06/19 05:56:24;;;;;;;6.57;4.65;;;;;;;;;;4935932;29;20095;-90
2023/06/19 05:59:09;;;;;;;7.20;4.22;;;;;;;;;;4937111;29;20416;-91
2023/06/19 06:01:55;;;;;;;8.60;5.70;;;;;;;;;;4937140;29;20479;-90
2023/06/19 06:04:40;;;;;;;8.80;5.00;;;;;;;;;;4935885;29;20043;-92
2023/06/19 06:07:27;;;;;;;6.82;4.97;;;;;;;;;;4936527;29;20072;-90
2023/06/19 06:10:12;;;;;;;8.18;4.72;;;;;;;;;;4922811;29;20051;-91
2023/06/19 06:12:56;;;;;;;5.68;3.95;;;;;;;;;;4935747;29;20099;-90
2023/06/19 06:15:41;;;;;;;6.57;4.57;;;;;;;;;;4936364;29;20090;-90
2023/06/19 06:18:28;;;;;;;6.28;4.30;;;;;;;;;;4936463;29;20138;-90
2023/06/19 06:21:13;;;;;;;6.55;4.13;;;;;;;;;;4940006;29;20090;-94
2023/06/19 06:23:57;;;;;;;8.23;4.35;;;;;;;;;;4909994;29;20094;-88
2023/06/19 06:26:42;;;;;;;8.20;4.28;;;;;;;;;;4940598;29;20091;-95
2023/06/19 06:29:28;;;;;;;5.32;4.00;;;;;;;;;;4938804;29;20121;-92
2023/06/19 06:32:12;;;;;;;5.25;3.75;;;;;;;;;;4924297;29;20043;-94
2023/06/19 06:34:58;;;;;;;6.55;3.40;;;;;;;;;;4936490;29;20396;-95
2023/06/19 06:37:45;;;;;;;4.38;3.55;;;;;;;;;;4936115;29;20496;-96
2023/06/19 06:40:30;;;;;;;6.45;3.72;;;;;;;;;;4910938;29;20043;-95
2023/06/19 06:43:15;;;;;;;9.05;3.78;;;;;;;;;;4936325;29;20046;-95
2023/06/19 06:46:00;;;;;;;5.90;4.43;;;;;;;;;;4910611;29;20046;-94
2023/06/19 06:48:44;;;;;;;6.28;5.43;;;;;;;;;;4937917;29;20407;-94
2023/06/19 06:51:29;;;;;;;7.47;5.47;;;;;;;;;;4922237;29;20104;-94
2023/06/19 06:54:13;;;;;;;7.07;5.70;;;;;;;;;;4937948;29;20050;-95
2023/06/19 06:56:59;;;;;;;8.93;6.32;;;;;;;;;;4936860;29;20127;-94
2023/06/19 06:59:47;;;;;;;10.18;7.13;;;;;;;;;;4937479;29;20183;-94
2023/06/19 07:02:32;;;;;;;17.67;7.85;;;;;;;;;;4937809;29;20047;-93
2023/06/19 07:05:17;;;;;;;11.85;9.35;;;;;;;;;;4937223;29;20043;-94
2023/06/19 07:08:02;;;;;;;11.23;8.40;;;;;;;;;;4936638;29;20049;-94
2023/06/19 07:10:46;;;;;;;14.20;10.05;;;;;;;;;;4911183;29;20095;-95
2023/06/19 07:13:31;;;;;;;15.55;10.77;;;;;;;;;;4937459;29;20099;-94
2023/06/19 07:16:15;;;;;;;16.33;11.27;;;;;;;;;;4923252;29;20123;-95
2023/06/19 07:19:00;;;;;;;17.48;11.02;;;;;;;;;;4938212;29;20046;-93
2023/06/19 07:21:45;;;;;;;14.45;10.50;;;;;;;;;;4945207;29;20062;-95
2023/06/19 07:24:29;;;;;;;14.32;10.38;;;;;;;;;;4917421;29;20118;-96
2023/06/19 07:27:14;;;;;;;14.45;9.90;;;;;;;;;;4945269;29;20082;-94
2023/06/19 07:29:59;;;;;;;12.27;8.80;;;;;;;;;;4945419;29;20075;-95
2023/06/19 07:32:43;;;;;;;15.00;8.90;;;;;;;;;;4943633;29;20090;-93
2023/06/19 07:35:28;;;;;;;13.35;8.40;;;;;;;;;;4927063;29;20408;-93
2023/06/19 07:38:13;;;;;;;14.45;9.05;;;;;;;;;;4910721;29;20082;-94
2023/06/19 07:40:57;;;;;;;14.85;8.95;;;;;;;;;;4945111;29;20400;-93
2023/06/19 07:43:42;;;;;;;11.85;8.50;;;;;;;;;;4938456;29;20652;-90
2023/06/19 07:46:27;;;;;;;10.00;7.28;;;;;;;;;;4936499;29;20082;-90
2023/06/19 07:49:11;;;;;;;13.18;8.77;;;;;;;;;;4938299;29;20058;-91
2023/06/19 07:51:56;;;;;;;9.85;6.85;;;;;;;;;;4938119;29;20046;-91
2023/06/19 07:54:51;;;;;;;9.70;6.57;;;;;;;;;;4937716;29;20119;-91
2023/06/19 07:57:36;;;;;;;9.73;6.82;;;;;;;;;;4935431;29;20038;-88
2023/06/19 08:00:20;;;;;;;13.02;6.38;;;;;;;;;;4935001;29;20102;-89
2023/06/19 08:03:05;;;;;;;13.75;5.25;;;;;;;;;;4935094;29;20051;-89
2023/06/19 08:05:50;;;;;;;7.50;5.45;;;;;;;;;;4934221;29;20037;-90
2023/06/19 08:08:35;;;;;;;6.57;4.85;;;;;;;;;;4933348;29;20449;-90
2023/06/19 08:11:19;;;;;;;8.45;4.97;;;;;;;;;;4934076;29;20063;-89
2023/06/19 08:14:04;;;;;;;7.70;5.00;;;;;;;;;;4920589;29;20046;-89
2023/06/19 08:16:49;;;;;;;9.30;4.78;;;;;;;;;;4934711;29;20094;-89
2023/06/19 08:19:33;;;;;;;10.13;4.80;;;;;;;;;;4922004;29;20062;-90
2023/06/19 08:22:18;;;;;;;7.75;4.72;;;;;;;;;;4936995;29;20043;-90
2023/06/19 08:25:03;;;;;;;8.45;4.75;;;;;;;;;;4936982;29;20508;-90
2023/06/19 08:27:48;;;;;;;8.60;4.25;;;;;;;;;;4937482;29;20094;-90
2023/06/19 08:30:33;;;;;;;10.05;3.72;;;;;;;;;;4937525;29;20453;-92
2023/06/19 08:33:17;;;;;;;5.63;3.88;;;;;;;;;;4937132;29;20046;-90
2023/06/19 08:36:02;;;;;;;8.55;4.45;;;;;;;;;;4923471;29;20063;-90
2023/06/19 08:38:49;;;;;;;7.30;4.72;;;;;;;;;;4936933;29;20103;-90
2023/06/19 08:41:34;;;;;;;9.95;4.70;;;;;;;;;;4936391;29;20495;-94
2023/06/19 08:44:18;;;;;;;8.80;4.85;;;;;;;;;;4923462;29;20066;-91
2023/06/19 08:47:06;;;;;;;6.68;4.53;;;;;;;;;;4923072;29;20046;-90
2023/06/19 08:49:50;;;;;;;8.00;4.22;;;;;;;;;;4936759;29;20107;-89
2023/06/19 08:52:35;;;;;;;9.02;4.40;;;;;;;;;;4935481;29;20124;-91
2023/06/19 08:55:20;;;;;;;6.47;4.43;;;;;;;;;;4936365;29;20046;-90
2023/06/19 08:58:04;;;;;;;7.70;4.95;;;;;;;;;;4936671;29;20554;-90
2023/06/19 09:00:49;;;;;;;7.45;5.20;;;;;;;;;;4922414;29;20047;-90
2023/06/19 09:03:34;;;;;;;10.45;4.68;;;;;;;;;;4935740;29;20094;-92
2023/06/19 09:06:19;;;;;;;6.22;4.50;;;;;;;;;;4936791;29;20039;-91
2023/06/19 09:09:10;;;;;;;8.45;3.90;;;;;;;;;;4936261;29;20054;-89
2023/06/19 09:12:02;;;;;;;10.30;5.20;;;;;;;;;;4937592;29;20118;-89
2023/06/19 09:14:47;;;;;;;7.68;4.85;;;;;;;;;;4937507;29;20412;-90
2023/06/19 09:17:32;;;;;;;7.57;5.03;;;;;;;;;;4923452;29;20126;-90
2023/06/19 09:20:26;;;;;;;5.75;4.13;;;;;;;;;;4937808;29;20069;-90
2023/06/19 09:23:11;;;;;;;8.00;4.68;;;;;;;;;;4937666;29;20042;-92
2023/06/19 09:25:58;;;;;;;8.82;5.10;;;;;;;;;;4937300;29;20416;-92
2023/06/19 09:28:42;;;;;;;7.32;5.10;;;;;;;;;;4937176;29;20531;-92
2023/06/19 09:31:34;;;;;;;8.27;4.80;;;;;;;;;;4935398;29;20082;-90
2023/06/19 09:34:18;;;;;;;9.60;5.78;;;;;;;;;;4936528;29;20046;-91
2023/06/19 09:37:03;;;;;;;11.20;5.57;;;;;;;;;;4937287;29;20091;-91
2023/06/19 09:39:52;;;;;;;12.10;6.13;;;21.50;99.90;;;;;;4937051;29;20514;-90
2023/06/19 09:42:41;;;;;;;11.13;6.28;;;;;;;;;;4937479;29;20098;-90
2023/06/19 09:45:28;;;;;;;10.77;6.82;;;;;;;;;;4936213;29;20054;-90
2023/06/19 09:48:14;;;;;;;13.23;7.15;;;;;;;;;;4937186;29;20077;-90
2023/06/19 09:51:19;;;;;;;7.55;5.72;;;21.80;99.90;;;;;;4936001;29;20153;-89
2023/06/19 09:54:06;;;;;;;9.95;6.55;;;;;;;;;;4937591;29;20457;-90
2023/06/19 09:56:51;;;;;;;9.95;6.88;;;;;;;;;;4936903;29;20515;-93
2023/06/19 09:59:36;;;;;;;12.13;6.50;;;;;;;;;;4937280;29;20118;-92
2023/06/19 10:02:21;;;;;;;10.18;5.60;;;;;;;;;;4937060;29;20122;-92
2023/06/19 10:05:11;;;;;;;7.15;5.03;;;;;;;;;;4935702;29;20428;-92
2023/06/19 10:08:00;;;;;;;11.02;5.57;;;;;;;;;;4936953;29;20063;-94
2023/06/19 10:10:48;;;;;;;10.25;6.10;;;;;;;;;;4936504;29;20086;-94
2023/06/19 10:13:34;;;;;;;10.27;6.32;;;;;;;;;;4909623;29;20507;-93
2023/06/19 10:16:22;;;;;;;9.93;6.63;;;;;;;;;;4936098;29;20503;-92
2023/06/19 10:19:17;;;;;;;13.98;7.68;;;;;;;;;;4937317;29;20093;-93
2023/06/19 10:22:04;;;;;;;10.02;6.38;;;;;;;;;;4936747;29;20123;-94
2023/06/19 10:24:51;;;;;;;8.02;6.22;;;;;;;;;;4936603;29;20039;-93
2023/06/19 10:27:38;;;;;;;12.80;7.25;;;;;;;;;;4935751;29;20103;-91
2023/06/19 10:30:22;;;;;;;10.77;7.28;;;;;;;;;;4936490;29;20055;-90
2023/06/19 10:33:07;;;;;;;9.45;6.93;;;;;;;;;;4921673;29;20043;-90
2023/06/19 10:35:52;;;;;;;13.32;7.63;;;;;;;;;;4935079;29;20420;-90
2023/06/19 10:38:37;;;;;;;12.02;7.75;;;;;;;;;;4936250;29;20559;-90
2023/06/19 10:41:22;;;;;;;11.95;8.43;;;;;;;;;;4935756;29;20548;-91
2023/06/19 10:44:14;;;;;;;11.45;7.88;;;;;;;;;;4935863;29;20495;-91
2023/06/19 10:47:00;;;;;;;12.10;8.13;;;;;;;;;;4934607;29;20400;-90
2023/06/19 10:49:44;;;;;;;12.15;7.53;;;;;;;;;;4936046;29;20055;-91
2023/06/19 10:52:29;;;;;;;9.75;7.38;;;;;;;;;;4935905;29;20090;-90
2023/06/19 10:55:14;;;;;;;9.80;7.47;;;;;;;;;;4936022;29;20046;-90
2023/06/19 10:57:59;;;;;;;11.65;7.05;;;;;;;;;;4934563;29;20103;-91
2023/06/19 11:00:44;;;;;;;8.98;6.00;;;;;;;;;;4935779;29;20042;-90
2023/06/19 11:03:29;;;;;;;9.13;6.05;;;;;;;;;;4934832;29;20050;-90
2023/06/19 11:06:20;;;;;;;9.52;7.60;;;;;;;;;;4935044;29;20105;-90
2023/06/19 11:09:06;;;;;;;12.43;6.40;;;;;;;;;;4934305;29;20051;-90
2023/06/19 11:11:52;;;;;;;9.95;6.35;;;;;;;;;;4934361;29;20035;-90
2023/06/19 11:14:39;;;;;;;9.18;6.32;;;;;;;;;;4934710;29;20099;-89
2023/06/19 11:17:24;;;;;;;10.00;5.78;;;;;;;;;;4935630;29;20042;-91
2023/06/19 11:20:11;;;;;;;8.93;6.00;;;;;;;;;;4934285;29;20123;-90
2023/06/19 11:22:56;;;;;;;8.40;5.55;;;;;;;;;;4935068;29;20499;-90
2023/06/19 11:25:42;;;;;;;9.10;6.32;;;;;;;;;;4935725;29;20039;-90
2023/06/19 11:28:29;;;;;;;8.07;6.25;;;;;;;;;;4935424;29;20046;-91
2023/06/19 11:31:14;;;;;;;10.45;6.88;;;;;;;;;;4934112;29;20046;-92
2023/06/19 11:33:59;;;;;;;11.05;6.20;;;;;;;;;;4935023;29;20070;-90
2023/06/19 11:36:44;;;;;;;13.27;6.47;;;;;;;;;;4935263;29;20078;-89
2023/06/19 11:39:29;;;;;;;13.13;7.22;;;;;;;;;;4934234;29;20043;-90
2023/06/19 11:42:17;;;;;;;11.48;6.60;;;;;;;;;;4936113;29;20042;-90
2023/06/19 11:45:03;;;;;;;9.27;6.45;;;;;;;;;;4920674;29;20171;-91
2023/06/19 11:47:50;;;;;;;12.65;6.78;;;;;;;;;;4934045;29;20058;-91
2023/06/19 11:50:35;;;;;;;8.63;5.45;;;;;;;;;;4934245;29;20090;-90
2023/06/19 11:53:20;;;;;;;8.95;5.93;;;;;;;;;;4934451;29;20038;-90
2023/06/19 11:56:07;;;;;;;14.75;6.70;;;;;;;;;;4933834;29;20523;-91
2023/06/19 11:58:52;;;;;;;19.73;7.80;;;;;;;;;;4921142;29;20072;-91
2023/06/19 12:01:38;;;;;;;37.08;10.73;;;;;;;;;;4935203;29;20118;-91
2023/06/19 12:04:23;;;;;;;12.73;8.07;;;;;;;;;;4920654;29;20090;-91
2023/06/19 12:07:07;;;;;;;11.85;7.97;;;;;;;;;;4934756;29;20452;-91
2023/06/19 12:09:52;;;;;;;12.35;8.00;;;;;;;;;;4935033;29;20046;-91
2023/06/19 12:12:38;;;;;;;15.02;7.97;;;;;;;;;;4935105;29;20046;-91
2023/06/19 12:15:23;;;;;;;57.75;10.77;;;;;;;;;;4935034;29;20416;-90
2023/06/19 12:18:08;;;;;;;24.13;9.40;;;;;;;;;;4934892;29;20398;-91
2023/06/19 12:20:53;;;;;;;19.20;8.15;;;;;;;;;;4920809;29;20091;-92
2023/06/19 12:23:37;;;;;;;10.55;7.22;;;;;;;;;;4933901;29;20392;-89
2023/06/19 12:26:25;;;;;;;13.48;7.53;;;;;;;;;;4920314;29;20050;-90
2023/06/19 12:29:09;;;;;;;11.23;7.18;;;;;;;;;;4933443;29;20659;-91
2023/06/19 12:31:59;;;;;;;15.52;7.15;;;;;;;;;;4934846;29;20452;-92
2023/06/19 12:34:46;;;;;;;25.67;9.32;;;;;;;;;;4934613;29;20067;-90
2023/06/19 12:37:31;;;;;;;8.95;6.05;;;;;;;;;;4934924;29;20146;-91
2023/06/19 12:40:16;;;;;;;16.13;7.82;;;;;;;;;;4934444;29;20043;-91
2023/06/19 12:43:01;;;;;;;13.23;7.03;;;;;;;;;;4934382;29;20043;-90
2023/06/19 12:45:46;;;;;;;9.80;6.20;;;;;;;;;;4934036;29;20544;-92
2023/06/19 12:48:30;;;;;;;13.07;7.05;;;;;;;;;;4934449;29;20070;-90
2023/06/19 12:51:15;;;;;;;12.68;6.18;;;;;;;;;;4934231;29;20099;-91
2023/06/19 12:53:59;;;;;;;10.25;6.25;;;;;;;;;;4906972;29;20059;-90
2023/06/19 12:56:44;;;;;;;8.65;6.15;;;;;;;;;;4934112;29;20099;-90
2023/06/19 12:59:29;;;;;;;10.85;6.38;;;;;;;;;;4935078;29;20107;-90
2023/06/19 13:02:14;;;;;;;10.73;6.03;;;;;;;;;;4934853;29;20046;-92
2023/06/19 13:04:58;;;;;;;9.95;5.72;;;;;;;;;;4936604;29;20042;-92
2023/06/19 13:07:43;;;;;;;11.15;6.05;;;;;;;;;;4937805;29;20054;-91
2023/06/19 13:10:27;;;;;;;12.50;6.43;;;;;;;;;;4923252;29;20103;-90
2023/06/19 13:13:13;;;;;;;7.88;6.20;;;;;;;;;;4939434;29;20042;-95
2023/06/19 13:15:58;;;;;;;9.35;5.80;;;;;;;;;;4945916;29;20039;-94
2023/06/19 13:18:42;;;;;;;7.85;5.38;;;;;;;;;;4945007;29;20039;-92
2023/06/19 13:21:27;;;;;;;9.23;6.10;;;;;;;;;;4948565;29;20042;-94
2023/06/19 13:24:12;;;;;;;10.77;6.03;;;;;;;;;;4948576;29;20099;-94
2023/06/19 13:26:56;;;;;;;9.98;6.95;;;;;;;;;;4950623;29;20059;-94
2023/06/19 13:29:41;;;;;;;9.98;6.40;;;;;;;;;;4948668;29;20053;-94
2023/06/19 13:32:26;;;;;;;14.52;7.35;;;;;;;;;;4929313;29;20408;-94
2023/06/19 13:35:10;;;;;;;9.25;6.30;;;;;;;;;;4950719;29;20493;-95
2023/06/19 13:37:55;;;;;;;10.80;6.35;;;;;;;;;;4945226;29;20403;-96
2023/06/19 13:40:41;;;;;;;14.20;7.00;;;;;;;;;;4946832;29;20070;-95
2023/06/19 13:43:26;;;;;;;11.63;7.00;;;;;;;;;;4934776;29;20116;-95
2023/06/19 13:46:11;;;;;;;11.20;7.55;;;;;;;;;;4949551;29;20026;-96
2023/06/19 13:48:56;;;;;;;8.13;6.38;;;;;;;;;;4949227;29;20111;-95
2023/06/19 13:51:42;;;;;;;10.57;6.35;;;;;;;;;;4952993;29;20050;-94
2023/06/19 13:54:27;;;;;;;8.75;5.60;;;;;;;;;;4946620;29;20090;-95
2023/06/19 13:57:12;;;;;;;12.80;6.65;;;;;;;;;;4942536;29;20087;-94
2023/06/19 13:59:56;;;;;;;8.50;5.43;;;;;;;;;;4947057;29;20527;-94
2023/06/19 14:02:41;;;;;;;10.00;5.43;;;;;;;;;;4946122;29;20046;-94
2023/06/19 14:05:26;;;;;;;7.53;5.43;;;;;;;;;;4948202;29;20502;-93
2023/06/19 14:08:11;;;;;;;10.80;6.05;;;;;;;;;;4949144;29;20119;-95
2023/06/19 14:10:56;;;;;;;8.50;5.03;;;;;;;;;;4949346;29;20062;-94
2023/06/19 14:13:41;;;;;;;17.98;6.80;;;;;;;;;;4950259;29;20118;-94
2023/06/19 14:16:25;;;;;;;9.07;5.68;;;;;;;;;;4945222;29;20087;-96
2023/06/19 14:19:10;;;;;;;8.68;5.40;;;;;;;;;;4929328;29;20043;-88
2023/06/19 14:21:55;;;;;;;9.23;5.53;;;;;;;;;;4938896;29;20047;-94
2023/06/19 14:24:40;;;;;;;14.20;5.38;;;;;;;;;;4926545;29;20047;-94
2023/06/19 14:27:24;;;;;;;10.73;5.05;;;;;;;;;;4941100;29;20436;-94
2023/06/19 14:30:09;;;;;;;8.13;4.22;;;;;;;;;;4940623;29;20066;-94
2023/06/19 14:32:54;;;;;;;7.03;4.53;;;;;;;;;;4943205;29;20082;-92
2023/06/19 14:35:38;;;;;;;8.13;4.22;;;;;;;;;;4941023;29;20083;-93
2023/06/19 14:38:27;;;;;;;8.40;4.28;;;;;;;;;;4939689;29;20460;-93
2023/06/19 14:41:12;;;;;;;11.05;4.28;;;;;;;;;;4942182;29;20409;-90
2023/06/19 14:43:57;;;;;;;6.50;4.00;;;;;;;;;;4943634;29;20457;-92
2023/06/19 14:46:41;;;;;;;8.02;4.10;;;;;;;;;;4938529;29;20106;-94
2023/06/19 14:49:27;;;;;;;6.65;4.15;;;;;;;;;;4936092;29;20055;-94
2023/06/19 14:52:12;;;;;;;5.78;4.03;;;;;;;;;;4938458;29;20072;-93
2023/06/19 14:54:57;;;;;;;6.32;3.72;;;;;;;;;;4936841;29;20043;-94
2023/06/19 14:57:41;;;;;;;9.70;4.22;;;;;;;;;;4922133;29;20166;-93
2023/06/19 15:00:26;;;;;;;6.13;3.35;;;;;;;;;;4936382;29;20055;-92
2023/06/19 15:03:11;;;;;;;6.80;3.83;;;;;;;;;;4922497;29;20062;-94
2023/06/19 15:05:56;;;;;;;8.50;3.92;;;;;;;;;;4936481;29;20039;-91
2023/06/19 15:08:41;;;;;;;5.05;3.25;;;;;;;;;;4922046;29;20054;-94
2023/06/19 15:11:26;;;;;;;5.28;3.35;;;;;;;;;;4921405;29;20046;-93
2023/06/19 15:14:10;;;;;;;8.48;3.30;;;;;;;;;;4921975;29;20042;-93
2023/06/19 15:16:55;;;;;;;11.40;4.03;;;;;;;;;;4937055;29;20099;-95
2023/06/19 15:19:39;;;;;;;9.88;3.92;;;;;;;;;;4940028;29;20055;-93
2023/06/19 15:22:24;;;;;;;7.07;4.22;;;;;;;;;;4936656;29;20110;-91
2023/06/19 15:25:09;;;;;;;8.07;3.90;;;;;;;;;;4938646;29;20067;-91
2023/06/19 15:27:53;;;;;;;9.48;3.92;;;;;;;;;;4937094;29;20129;-92
2023/06/19 15:30:38;;;;;;;7.05;3.70;;;;;;;;;;4935716;29;20641;-93
2023/06/19 15:33:23;;;;;;;6.85;4.82;;;;;;;;;;4935054;29;20068;-90
2023/06/19 15:36:07;;;;;;;6.50;4.10;;;;;;;;;;4935610;29;20540;-92
2023/06/19 15:38:53;;;;;;;12.02;4.25;;;;;;;;;;4938064;29;20122;-88
2023/06/19 15:41:38;;;;;;;7.65;4.10;;;;;;;;;;4935102;29;20047;-92
2023/06/19 15:44:22;;;;;;;6.70;3.53;;;;;;;;;;4934980;29;20039;-91
2023/06/19 15:47:07;;;;;;;7.88;4.10;;;;;;;;;;4934224;29;20092;-91
2023/06/19 15:49:52;;;;;;;11.13;4.78;;;;;;;;;;4934267;29;20063;-90
2023/06/19 15:52:36;;;;;;;6.70;4.38;;;;;;;;;;4934809;29;20512;-90
2023/06/19 15:55:21;;;;;;;6.70;4.22;;;;;;;;;;4935105;29;20045;-90
2023/06/19 15:58:05;;;;;;;5.30;3.72;;;;;;;;;;4935120;29;20051;-90
2023/06/19 16:00:52;;;;;;;7.55;4.40;;;;;;;;;;4935383;29;20055;-91
2023/06/19 16:03:37;;;;;;;6.35;3.45;;;;;;;;;;4934780;29;20078;-92
2023/06/19 16:06:21;;;;;;;7.15;4.47;;;;;;;;;;4935146;29;20039;-90
2023/06/19 16:09:06;;;;;;;5.78;4.28;;;;;;;;;;4934861;29;20054;-90
2023/06/19 16:11:51;;;;;;;6.90;4.10;;;;;;;;;;4934931;29;20490;-93
2023/06/19 16:14:36;;;;;;;6.65;4.10;;;;;;;;;;4935540;29;20042;-89
2023/06/19 16:17:21;;;;;;;8.45;4.10;;;;;;;;;;4935138;29;20042;-88
2023/06/19 16:20:06;;;;;;;5.88;3.80;;;;;;;;;;4934885;29;20187;-92
2023/06/19 16:22:51;;;;;;;6.00;3.63;;;;;;;;;;4921763;29;20608;-92